Time;durP1;ratioP1;P1;durP2;ratioP2;P2;SDS_P1;SDS_P2;PMS_P1;PMS_P2;Temp;Humidity;BMP_temperature;BMP_pressure;BME280_temperature;BME280_humidity;BME280_pressure;Samples;Min_cycle;Max_cycle;Signal;HPM_P1;HPM_P2
2020/12/26 00:01:17;;;;;;;0.50;0.50;;;2.50;99.90;;;;;;4383221;32;20078;-75
2020/12/26 00:03:43;;;;;;;0.40;0.40;;;2.60;99.90;;;;;;4384007;32;20186;-74
2020/12/26 00:06:14;;;;;;;0.40;0.40;;;2.60;99.90;;;;;;4396868;32;20546;-74
2020/12/26 00:08:39;;;;;;;0.32;0.32;;;2.60;99.90;;;;;;4405286;32;20393;-75
2020/12/26 00:11:08;;;;;;;0.50;0.50;;;2.60;99.90;;;;;;4403110;32;20147;-74
2020/12/26 00:13:34;;;;;;;0.30;0.30;;;2.50;99.90;;;;;;4403191;32;20066;-74
2020/12/26 00:16:04;;;;;;;0.40;0.40;;;2.40;99.90;;;;;;4403431;32;20511;-75
2020/12/26 00:18:29;;;;;;;0.40;0.40;;;2.50;99.90;;;;;;4394429;32;20066;-74
2020/12/26 00:20:55;;;;;;;0.40;0.40;;;2.40;99.90;;;;;;4388969;32;20090;-75
2020/12/26 00:23:20;;;;;;;1.05;1.02;;;2.40;99.90;;;;;;4387814;32;20067;-74
2020/12/26 00:25:45;;;;;;;0.32;0.32;;;2.50;99.90;;;;;;4387581;32;20078;-75
2020/12/26 00:28:11;;;;;;;0.60;0.60;;;2.50;99.90;;;;;;4387882;32;20075;-75
2020/12/26 00:30:36;;;;;;;0.90;0.73;;;2.40;99.90;;;;;;4389688;32;20389;-74
2020/12/26 00:33:02;;;;;;;0.40;0.40;;;2.50;99.90;;;;;;4388009;32;20078;-73
2020/12/26 00:35:27;;;;;;;0.30;0.30;;;2.40;99.90;;;;;;4388135;32;20078;-74
2020/12/26 00:37:53;;;;;;;0.43;0.43;;;2.30;99.90;;;;;;4388254;32;20070;-75
2020/12/26 00:40:18;;;;;;;0.52;0.52;;;2.30;99.90;;;;;;4387805;32;20061;-75
2020/12/26 00:42:44;;;;;;;0.93;0.93;;;2.20;99.90;;;;;;4387823;32;20074;-74
2020/12/26 00:45:09;;;;;;;0.40;0.40;;;2.20;99.90;;;;;;4388149;32;20066;-74
2020/12/26 00:47:35;;;;;;;0.30;0.30;;;2.20;99.90;;;;;;4389086;32;20086;-73
2020/12/26 00:50:00;;;;;;;0.30;0.30;;;2.20;99.90;;;;;;4388086;32;20511;-73
2020/12/26 00:52:26;;;;;;;0.35;0.35;;;2.30;99.90;;;;;;4387667;32;20163;-74
2020/12/26 00:54:51;;;;;;;2.60;1.52;;;2.40;99.90;;;;;;4387559;32;20071;-74
2020/12/26 00:57:17;;;;;;;0.30;0.30;;;2.40;99.90;;;;;;4387581;32;20126;-73
2020/12/26 00:59:42;;;;;;;0.50;0.50;;;2.30;99.90;;;;;;4387813;32;20086;-74
2020/12/26 01:02:07;;;;;;;0.30;0.30;;;2.30;99.90;;;;;;4387622;32;20062;-73
2020/12/26 01:04:33;;;;;;;0.55;0.55;;;2.30;99.90;;;;;;4388166;32;20118;-73
2020/12/26 01:06:58;;;;;;;0.50;0.50;;;2.30;99.90;;;;;;4400814;32;20083;-73
2020/12/26 01:09:24;;;;;;;1.05;0.95;;;2.40;99.90;;;;;;4402933;32;20388;-73
2020/12/26 01:11:51;;;;;;;0.75;0.75;;;2.30;99.90;;;;;;4402329;32;20349;-73
2020/12/26 01:14:16;;;;;;;0.40;0.40;;;2.30;99.90;;;;;;4403667;32;20122;-74
2020/12/26 01:16:43;;;;;;;0.37;0.37;;;2.20;99.90;;;;;;4399818;32;20077;-74
2020/12/26 01:19:09;;;;;;;0.30;0.30;;;2.20;99.90;;;;;;4386953;32;20107;-75
2020/12/26 01:21:34;;;;;;;0.45;0.45;;;2.30;99.90;;;;;;4386418;32;20504;-74
2020/12/26 01:23:59;;;;;;;0.62;0.47;;;2.40;99.90;;;;;;4385465;32;20134;-75
2020/12/26 01:26:25;;;;;;;0.30;0.30;;;2.40;99.90;;;;;;4385174;32;20066;-75
2020/12/26 01:28:50;;;;;;;0.40;0.40;;;2.40;99.90;;;;;;4385008;32;20484;-75
2020/12/26 01:31:16;;;;;;;0.60;0.60;;;2.30;99.90;;;;;;4385493;32;20091;-75
2020/12/26 01:33:42;;;;;;;0.40;0.40;;;2.20;99.90;;;;;;4384886;32;20078;-75
2020/12/26 01:36:12;;;;;;;0.32;0.32;;;2.20;99.90;;;;;;4385811;32;20074;-74
2020/12/26 01:38:37;;;;;;;0.37;0.37;;;2.20;99.90;;;;;;4385055;32;20449;-74
2020/12/26 01:41:03;;;;;;;0.50;0.50;;;2.20;99.90;;;;;;4384480;32;20067;-74
2020/12/26 01:43:28;;;;;;;0.40;0.40;;;2.30;99.90;;;;;;4385046;32;20473;-75
2020/12/26 01:45:54;;;;;;;0.40;0.40;;;2.20;99.90;;;;;;4385713;32;20078;-75
2020/12/26 01:48:19;;;;;;;3.12;0.55;;;2.30;99.90;;;;;;4386158;32;20394;-75
2020/12/26 01:50:45;;;;;;;0.30;0.30;;;2.20;99.90;;;;;;4385436;32;20070;-75
2020/12/26 01:53:12;;;;;;;0.37;0.37;;;2.20;99.90;;;;;;4384292;32;20074;-74
2020/12/26 01:55:40;;;;;;;0.30;0.30;;;2.30;99.90;;;;;;4384619;32;20074;-74
2020/12/26 01:58:13;;;;;;;0.40;0.40;;;2.20;99.90;;;;;;4384883;32;20130;-75
2020/12/26 02:00:39;;;;;;;0.40;0.40;;;2.20;99.90;;;;;;4384686;32;20078;-74
2020/12/26 02:03:05;;;;;;;0.40;0.40;;;2.30;99.90;;;;;;4384958;32;20125;-74
2020/12/26 02:05:31;;;;;;;0.30;0.30;;;2.20;99.90;;;;;;4388588;32;20062;-75
2020/12/26 02:07:57;;;;;;;0.40;0.40;;;2.20;99.90;;;;;;4401031;32;20507;-75
2020/12/26 02:10:22;;;;;;;0.30;0.30;;;2.20;99.90;;;;;;4400916;32;20070;-74
2020/12/26 02:12:47;;;;;;;0.37;0.37;;;2.00;99.90;;;;;;4400214;32;20066;-74
2020/12/26 02:15:14;;;;;;;0.30;0.30;;;2.00;99.90;;;;;;4399657;32;20074;-75
2020/12/26 02:17:40;;;;;;;0.80;0.80;;;2.00;99.90;;;;;;4395117;32;20404;-75
2020/12/26 02:20:06;;;;;;;1.20;0.77;;;1.90;99.90;;;;;;4384169;32;20055;-75
2020/12/26 02:22:31;;;;;;;0.40;0.40;;;2.00;99.90;;;;;;4385571;32;20066;-73
2020/12/26 02:24:57;;;;;;;0.50;0.50;;;2.00;99.90;;;;;;4384574;32;20079;-74
2020/12/26 02:27:22;;;;;;;0.30;0.30;;;2.10;99.90;;;;;;4383866;32;20125;-74
2020/12/26 02:29:47;;;;;;;0.73;0.73;;;2.10;99.90;;;;;;4384824;32;20443;-75
2020/12/26 02:32:13;;;;;;;0.68;0.68;;;2.10;99.90;;;;;;4384818;32;20071;-74
2020/12/26 02:34:38;;;;;;;0.30;0.30;;;2.00;99.90;;;;;;4384759;32;20078;-74
2020/12/26 02:37:04;;;;;;;0.75;0.75;;;1.90;99.90;;;;;;4385535;32;20062;-74
2020/12/26 02:39:29;;;;;;;0.30;0.30;;;1.90;99.90;;;;;;4384395;32;20131;-74
2020/12/26 02:41:55;;;;;;;0.30;0.30;;;1.90;99.90;;;;;;4383710;32;20130;-74
2020/12/26 02:44:20;;;;;;;1.62;0.62;;;2.00;99.90;;;;;;4384029;32;20125;-74
2020/12/26 02:46:50;;;;;;;0.47;0.47;;;1.90;99.90;;;;;;4384806;32;20392;-75
2020/12/26 02:49:17;;;;;;;5.15;1.73;;;1.90;99.90;;;;;;4384219;32;20079;-74
2020/12/26 02:51:43;;;;;;;0.50;0.50;;;1.90;99.90;;;;;;4385053;32;20074;-74
2020/12/26 02:54:11;;;;;;;0.60;0.60;;;1.90;99.90;;;;;;4383967;32;20074;-74
2020/12/26 02:56:38;;;;;;;0.40;0.40;;;2.00;99.90;;;;;;4383389;32;20073;-74
2020/12/26 02:59:04;;;;;;;0.40;0.40;;;1.90;99.90;;;;;;4384365;32;20082;-74
2020/12/26 03:01:29;;;;;;;0.68;0.68;;;1.90;99.90;;;;;;4384474;32;20070;-75
2020/12/26 03:03:55;;;;;;;0.95;0.80;;;1.90;99.90;;;;;;4383688;32;20079;-74
2020/12/26 03:06:20;;;;;;;0.82;0.82;;;1.90;99.90;;;;;;4393390;32;20173;-75
2020/12/26 03:08:46;;;;;;;0.43;0.43;;;1.90;99.90;;;;;;4400075;32;20091;-75
2020/12/26 03:11:11;;;;;;;0.32;0.32;;;1.90;99.90;;;;;;4398532;32;20536;-74
2020/12/26 03:13:37;;;;;;;0.30;0.30;;;1.90;99.90;;;;;;4398645;32;20066;-74
2020/12/26 03:16:02;;;;;;;0.30;0.30;;;1.90;99.90;;;;;;4399247;32;20129;-74
2020/12/26 03:18:28;;;;;;;0.35;0.35;;;1.90;99.90;;;;;;4388808;32;20125;-75
2020/12/26 03:20:53;;;;;;;0.43;0.43;;;2.00;99.90;;;;;;4384028;32;20070;-75
2020/12/26 03:23:18;;;;;;;0.30;0.30;;;2.10;99.90;;;;;;4383486;32;20078;-75
2020/12/26 03:25:44;;;;;;;3.00;1.15;;;2.00;99.90;;;;;;4383251;32;20066;-74
2020/12/26 03:28:10;;;;;;;0.47;0.47;;;2.00;99.90;;;;;;4383903;32;20134;-74
2020/12/26 03:30:35;;;;;;;5.05;0.70;;;1.90;99.90;;;;;;4384499;32;20527;-75
2020/12/26 03:33:00;;;;;;;0.40;0.40;;;1.90;99.90;;;;;;4384930;32;20750;-75
2020/12/26 03:35:26;;;;;;;0.40;0.40;;;1.90;99.90;;;;;;4384879;32;20066;-74
2020/12/26 03:37:51;;;;;;;0.30;0.30;;;1.90;99.90;;;;;;4384191;32;20084;-74
2020/12/26 03:40:17;;;;;;;0.30;0.30;;;1.80;99.90;;;;;;4382387;32;20520;-74
2020/12/26 03:42:42;;;;;;;0.40;0.40;;;1.90;99.90;;;;;;4383282;32;20434;-74
2020/12/26 03:45:08;;;;;;;0.47;0.47;;;1.90;99.90;;;;;;4383891;32;20093;-74
2020/12/26 03:47:33;;;;;;;0.30;0.30;;;1.80;99.90;;;;;;4383580;32;20062;-74
2020/12/26 03:49:59;;;;;;;0.30;0.30;;;1.80;99.90;;;;;;4383770;32;20070;-74
2020/12/26 03:52:25;;;;;;;0.37;0.37;;;1.90;99.90;;;;;;4383216;32;20082;-75
2020/12/26 03:54:50;;;;;;;0.55;0.45;;;1.80;99.90;;;;;;4383724;32;20344;-74
2020/12/26 03:57:16;;;;;;;0.30;0.30;;;1.90;99.90;;;;;;4383561;32;20070;-74
2020/12/26 03:59:41;;;;;;;0.40;0.40;;;2.00;99.90;;;;;;4383828;32;20438;-74
2020/12/26 04:02:07;;;;;;;1.35;0.65;;;2.00;99.90;;;;;;4383553;32;20488;-74
2020/12/26 04:04:33;;;;;;;2.40;1.70;;;2.00;99.90;;;;;;4383766;32;20097;-74
2020/12/26 04:06:58;;;;;;;0.40;0.40;;;1.90;99.90;;;;;;4396232;32;20074;-74
2020/12/26 04:09:24;;;;;;;0.40;0.40;;;1.90;99.90;;;;;;4398357;32;20081;-75
2020/12/26 04:11:49;;;;;;;0.30;0.30;;;1.90;99.90;;;;;;4398153;32;20124;-74
2020/12/26 04:14:15;;;;;;;0.30;0.30;;;2.00;99.90;;;;;;4398009;32;20401;-75
2020/12/26 04:16:41;;;;;;;0.65;0.65;;;2.00;99.90;;;;;;4398438;32;20412;-75
2020/12/26 04:19:06;;;;;;;2.28;0.95;;;1.90;99.90;;;;;;4384743;32;20066;-74
2020/12/26 04:21:32;;;;;;;0.30;0.30;;;2.00;99.90;;;;;;4382939;32;20114;-75
2020/12/26 04:23:58;;;;;;;0.82;0.60;;;1.90;99.90;;;;;;4382903;32;20074;-74
2020/12/26 04:26:23;;;;;;;0.30;0.30;;;2.00;99.90;;;;;;4383315;32;20522;-75
2020/12/26 04:28:49;;;;;;;0.40;0.40;;;2.10;99.90;;;;;;4383243;32;20117;-75
2020/12/26 04:31:16;;;;;;;0.30;0.30;;;2.10;99.90;;;;;;4383149;32;20066;-75
2020/12/26 04:33:41;;;;;;;0.30;0.30;;;2.10;99.90;;;;;;4383102;32;20066;-75
2020/12/26 04:36:07;;;;;;;0.30;0.30;;;2.10;99.90;;;;;;4382938;32;20397;-75
2020/12/26 04:38:33;;;;;;;0.30;0.30;;;2.10;99.90;;;;;;4383311;32;20066;-74
2020/12/26 04:40:59;;;;;;;0.45;0.45;;;2.00;99.90;;;;;;4382951;32;20067;-74
2020/12/26 04:43:26;;;;;;;0.30;0.30;;;1.90;99.90;;;;;;4384113;32;20516;-74
2020/12/26 04:45:54;;;;;;;1.95;0.80;;;1.90;99.90;;;;;;4383074;32;20130;-74
2020/12/26 04:48:22;;;;;;;0.30;0.30;;;1.90;99.90;;;;;;4382984;32;20496;-74
2020/12/26 04:50:50;;;;;;;0.30;0.30;;;1.90;99.90;;;;;;4384570;32;20071;-74
2020/12/26 04:53:18;;;;;;;1.35;0.68;;;1.90;99.90;;;;;;4386216;32;20082;-74
2020/12/26 04:55:49;;;;;;;0.45;0.45;;;1.90;99.90;;;;;;4385099;32;20066;-75
2020/12/26 04:58:17;;;;;;;0.47;0.45;;;1.90;99.90;;;;;;4385344;32;20083;-75
2020/12/26 05:00:43;;;;;;;2.42;1.08;;;2.00;99.90;;;;;;4385859;32;20063;-74
2020/12/26 05:03:11;;;;;;;0.30;0.30;;;2.00;99.90;;;;;;4385297;32;20082;-74
2020/12/26 05:05:39;;;;;;;0.52;0.52;;;1.90;99.90;;;;;;4389648;32;20070;-75
2020/12/26 05:08:06;;;;;;;0.40;0.40;;;2.00;99.90;;;;;;4400892;32;20070;-75
2020/12/26 05:10:33;;;;;;;0.40;0.40;;;1.90;99.90;;;;;;4400658;32;20066;-74
2020/12/26 05:13:00;;;;;;;0.35;0.35;;;1.90;99.90;;;;;;4400537;32;20495;-75
2020/12/26 05:15:26;;;;;;;0.50;0.50;;;1.90;99.90;;;;;;4400205;32;20126;-74
2020/12/26 05:17:52;;;;;;;0.30;0.30;;;1.90;99.90;;;;;;4395295;32;20090;-75
2020/12/26 05:20:18;;;;;;;0.30;0.30;;;1.70;99.90;;;;;;4386420;32;20410;-74
2020/12/26 05:22:43;;;;;;;1.90;0.93;;;1.70;99.90;;;;;;4386260;32;20378;-74
2020/12/26 05:25:10;;;;;;;0.37;0.37;;;1.60;99.90;;;;;;4385764;32;20082;-74
2020/12/26 05:27:36;;;;;;;1.00;0.85;;;1.60;99.90;;;;;;4384806;32;20118;-75
2020/12/26 05:30:04;;;;;;;0.40;0.40;;;1.60;99.90;;;;;;4386025;32;20058;-75
2020/12/26 05:32:29;;;;;;;0.70;0.70;;;1.70;99.90;;;;;;4385590;32;20496;-75
2020/12/26 05:35:03;;;;;;;0.60;0.60;;;1.70;99.90;;;;;;4385170;32;20113;-75
2020/12/26 05:37:30;;;;;;;0.40;0.40;;;1.70;99.90;;;;;;4385682;32;20074;-75
2020/12/26 05:39:59;;;;;;;0.52;0.52;;;1.70;99.90;;;;;;4384540;32;20067;-74
2020/12/26 05:42:25;;;;;;;0.30;0.30;;;1.60;99.90;;;;;;4384672;32;20082;-74
2020/12/26 05:44:50;;;;;;;0.37;0.37;;;1.60;99.90;;;;;;4386386;32;20560;-74
2020/12/26 05:47:16;;;;;;;0.45;0.45;;;1.60;99.90;;;;;;4385139;32;20512;-74
2020/12/26 05:49:41;;;;;;;0.40;0.40;;;1.60;99.90;;;;;;4385191;32;20070;-74
2020/12/26 05:52:09;;;;;;;0.70;0.70;;;1.50;99.90;;;;;;4384395;32;20121;-74
2020/12/26 05:54:36;;;;;;;0.40;0.40;;;1.40;99.90;;;;;;4384441;32;20062;-75
2020/12/26 05:57:08;;;;;;;0.50;0.50;;;1.40;99.90;;;;;;4384765;32;20086;-74
2020/12/26 05:59:33;;;;;;;1.05;0.95;;;1.40;99.90;;;;;;4386452;32;20445;-74
2020/12/26 06:02:16;;;;;;;0.50;0.50;;;1.40;99.90;;;;;;4384763;32;20066;-75
2020/12/26 06:04:50;;;;;;;0.40;0.40;;;1.40;99.90;;;;;;4386068;32;20081;-74
2020/12/26 06:07:16;;;;;;;1.15;1.15;;;1.30;99.90;;;;;;4400526;32;20066;-75
2020/12/26 06:09:45;;;;;;;0.45;0.45;;;1.30;99.90;;;;;;4399989;32;20070;-75
2020/12/26 06:12:15;;;;;;;0.40;0.40;;;1.40;99.90;;;;;;4399435;32;20116;-75
2020/12/26 06:14:41;;;;;;;0.50;0.50;;;1.30;99.90;;;;;;4399852;32;20061;-75
2020/12/26 06:17:07;;;;;;;0.30;0.30;;;1.20;99.90;;;;;;4397963;32;20101;-74
2020/12/26 06:19:35;;;;;;;0.52;0.52;;;1.30;99.90;;;;;;4386230;32;20426;-74
2020/12/26 06:22:01;;;;;;;0.30;0.30;;;1.30;99.90;;;;;;4385744;32;20067;-74
2020/12/26 06:24:26;;;;;;;0.65;0.60;;;1.30;99.90;;;;;;4384413;32;20079;-75
2020/12/26 06:26:59;;;;;;;0.40;0.40;;;1.20;99.90;;;;;;4384954;32;20070;-74
2020/12/26 06:29:31;;;;;;;0.30;0.30;;;1.20;99.90;;;;;;4385564;32;20082;-75
2020/12/26 06:31:58;;;;;;;0.45;0.45;;;1.10;99.90;;;;;;4384602;32;20078;-74
2020/12/26 06:34:24;;;;;;;0.40;0.40;;;1.10;99.90;;;;;;4385121;32;20067;-75
2020/12/26 06:36:54;;;;;;;0.40;0.40;;;1.20;99.90;;;;;;4385193;32;20472;-75
2020/12/26 06:39:36;;;;;;;0.47;0.47;;;1.20;99.90;;;;;;4384328;32;20075;-75
2020/12/26 06:42:10;;;;;;;0.30;0.30;;;1.10;99.90;;;;;;4384922;32;20079;-74
2020/12/26 06:44:36;;;;;;;0.35;0.35;;;1.20;99.90;;;;;;4384054;32;20078;-74
2020/12/26 06:47:02;;;;;;;0.43;0.43;;;1.30;99.90;;;;;;4384436;32;20086;-74
2020/12/26 06:49:28;;;;;;;0.30;0.30;;;1.20;99.90;;;;;;4384554;32;20066;-75
2020/12/26 06:51:54;;;;;;;4.32;1.90;;;1.20;99.90;;;;;;4384563;32;20083;-75
2020/12/26 06:54:38;;;;;;;0.30;0.30;;;1.30;99.90;;;;;;4383559;32;20407;-74
2020/12/26 06:57:04;;;;;;;0.37;0.37;;;1.20;99.90;;;;;;4384054;32;20460;-74
2020/12/26 06:59:34;;;;;;;0.60;0.60;;;1.20;99.90;;;;;;4384111;32;20125;-74
2020/12/26 07:02:05;;;;;;;0.52;0.52;;;1.00;99.90;;;;;;4384090;32;20422;-74
2020/12/26 07:04:37;;;;;;;0.98;0.93;;;0.80;99.90;;;;;;4384042;32;20079;-74
2020/12/26 07:07:02;;;;;;;0.40;0.40;;;0.70;99.90;;;;;;4397181;32;20074;-74
2020/12/26 07:09:38;;;;;;;0.60;0.60;;;0.80;99.90;;;;;;4399624;32;20061;-74
2020/12/26 07:12:05;;;;;;;0.40;0.40;;;0.70;99.90;;;;;;4398502;32;20551;-74
2020/12/26 07:14:36;;;;;;;0.40;0.40;;;0.70;99.90;;;;;;4399418;32;20069;-74
2020/12/26 07:17:03;;;;;;;0.70;0.70;;;0.80;99.90;;;;;;4399859;32;20062;-74
2020/12/26 07:19:46;;;;;;;0.57;0.57;;;0.70;99.90;;;;;;4384456;32;20062;-74
2020/12/26 07:22:16;;;;;;;0.50;0.50;;;0.60;99.90;;;;;;4384596;32;20079;-74
2020/12/26 07:24:43;;;;;;;3.42;1.15;;;0.70;99.90;;;;;;4383893;32;20078;-74
2020/12/26 07:27:16;;;;;;;0.40;0.40;;;0.70;99.90;;;;;;4386415;32;20094;-74
2020/12/26 07:30:18;;;;;;;0.32;0.32;;;0.80;99.90;;;;;;4384679;32;20069;-74
2020/12/26 07:32:47;;;;;;;0.40;0.40;;;0.80;99.90;;;;;;4372978;32;20090;-74
2020/12/26 07:35:16;;;;;;;0.50;0.50;;;0.90;99.90;;;;;;4385024;32;20066;-74
2020/12/26 07:37:44;;;;;;;0.50;0.50;;;1.00;99.90;;;;;;4385704;32;20078;-74
2020/12/26 07:40:15;;;;;;;0.50;0.50;;;1.00;99.90;;;;;;4383649;32;20070;-75
2020/12/26 07:42:43;;;;;;;0.40;0.40;;;1.00;99.90;;;;;;4382925;32;20094;-74
2020/12/26 07:45:12;;;;;;;0.70;0.70;;;0.90;99.90;;;;;;4383465;32;20150;-74
2020/12/26 07:47:41;;;;;;;0.77;0.77;;;1.00;99.90;;;;;;4386966;32;20146;-74
2020/12/26 07:50:08;;;;;;;2.92;1.55;;;1.00;99.90;;;;;;4383129;32;20078;-74
2020/12/26 07:52:33;;;;;;;1.20;1.10;;;1.00;99.90;;;;;;4383386;32;20071;-74
2020/12/26 07:55:00;;;;;;;0.55;0.55;;;1.10;99.90;;;;;;4383355;32;20078;-74
2020/12/26 07:57:27;;;;;;;1.17;0.80;;;1.00;99.90;;;;;;4386269;32;20126;-74
2020/12/26 07:59:52;;;;;;;0.40;0.40;;;1.00;99.90;;;;;;4384394;32;20076;-74
2020/12/26 08:02:18;;;;;;;0.43;0.43;;;1.00;99.90;;;;;;4384651;32;20550;-74
2020/12/26 08:04:45;;;;;;;0.43;0.43;;;1.20;99.90;;;;;;4383370;32;20078;-74
2020/12/26 08:07:11;;;;;;;1.67;0.77;;;1.10;99.90;;;;;;4398568;32;20074;-74
2020/12/26 08:09:37;;;;;;;0.50;0.50;;;1.20;99.90;;;;;;4398426;32;20149;-74
2020/12/26 08:12:08;;;;;;;0.98;0.82;;;1.30;99.90;;;;;;4397810;32;20081;-75
2020/12/26 08:14:34;;;;;;;2.25;2.05;;;1.30;99.90;;;;;;4401788;32;20111;-74
2020/12/26 08:17:01;;;;;;;0.30;0.30;;;1.30;99.90;;;;;;4400330;32;20067;-74
2020/12/26 08:19:26;;;;;;;0.60;0.60;;;1.20;99.90;;;;;;4383596;32;20129;-74
2020/12/26 08:21:59;;;;;;;0.37;0.37;;;1.30;99.90;;;;;;4383310;32;20557;-74
2020/12/26 08:24:25;;;;;;;2.17;1.37;;;1.30;99.90;;;;;;4383074;32;20083;-74
2020/12/26 08:26:53;;;;;;;0.32;0.32;;;1.30;99.90;;;;;;4388384;32;20078;-73
2020/12/26 08:29:25;;;;;;;2.17;1.50;;;1.30;99.90;;;;;;4387201;32;20075;-74
2020/12/26 08:31:54;;;;;;;0.65;0.65;;;1.30;99.90;;;;;;4386445;32;20070;-74
2020/12/26 08:34:31;;;;;;;0.80;0.80;;;1.50;99.90;;;;;;4386502;32;20067;-74
2020/12/26 08:37:04;;;;;;;0.50;0.50;;;1.50;99.90;;;;;;4386164;32;20121;-74
2020/12/26 08:39:32;;;;;;;1.25;0.82;;;1.40;99.90;;;;;;4385631;32;20058;-74
2020/12/26 08:42:00;;;;;;;0.55;0.55;;;1.50;99.90;;;;;;4382965;32;76981;-74
2020/12/26 08:44:29;;;;;;;0.70;0.70;;;1.60;99.90;;;;;;4385824;32;20095;-74
2020/12/26 08:46:54;;;;;;;0.68;0.68;;;1.60;99.90;;;;;;4385864;32;20079;-74
2020/12/26 08:49:20;;;;;;;0.60;0.60;;;1.70;99.90;;;;;;4386241;32;20103;-74
2020/12/26 08:51:46;;;;;;;0.50;0.50;;;1.50;99.90;;;;;;4386267;32;20104;-74
2020/12/26 08:54:21;;;;;;;0.47;0.47;;;1.50;99.90;;;;;;4386908;32;20075;-74
2020/12/26 08:56:46;;;;;;;0.40;0.40;;;1.60;99.90;;;;;;4385686;32;20402;-74
2020/12/26 08:59:12;;;;;;;1.30;1.20;;;1.50;99.90;;;;;;4386851;32;20066;-74
2020/12/26 09:01:39;;;;;;;1.00;0.85;;;1.70;99.90;;;;;;4385302;32;20087;-74
2020/12/26 09:04:13;;;;;;;2.83;1.23;;;1.70;99.90;;;;;;4385874;32;20071;-74
2020/12/26 09:06:42;;;;;;;0.40;0.40;;;1.70;99.90;;;;;;4395757;32;20066;-74
2020/12/26 09:09:18;;;;;;;0.65;0.65;;;1.60;99.90;;;;;;4400927;32;20087;-74
2020/12/26 09:11:45;;;;;;;4.20;0.85;;;1.60;99.90;;;;;;4400127;32;20081;-74
2020/12/26 09:14:19;;;;;;;0.40;0.40;;;1.60;99.90;;;;;;4400508;32;20069;-74
2020/12/26 09:16:46;;;;;;;0.70;0.70;;;1.60;99.90;;;;;;4400424;32;20113;-74
2020/12/26 09:19:11;;;;;;;0.40;0.40;;;1.70;99.90;;;;;;4386197;32;20126;-74
2020/12/26 09:21:37;;;;;;;0.40;0.40;;;1.80;99.90;;;;;;4385465;32;20077;-74
2020/12/26 09:24:14;;;;;;;2.15;1.70;;;1.80;99.90;;;;;;4384479;32;20067;-74
2020/12/26 09:26:40;;;;;;;0.40;0.40;;;1.70;99.90;;;;;;4385189;32;20134;-74
2020/12/26 09:29:05;;;;;;;1.92;0.90;;;1.90;99.90;;;;;;4385376;32;20082;-74
2020/12/26 09:31:35;;;;;;;0.47;0.47;;;2.00;99.90;;;;;;4385216;32;20062;-74
2020/12/26 09:34:13;;;;;;;0.90;0.85;;;2.00;99.90;;;;;;4385494;32;20092;-74
2020/12/26 09:36:39;;;;;;;0.30;0.30;;;2.10;99.90;;;;;;4384824;32;20070;-73
2020/12/26 09:39:05;;;;;;;0.50;0.50;;;2.10;99.90;;;;;;4385106;32;20087;-74
2020/12/26 09:41:41;;;;;;;0.45;0.45;;;2.10;99.90;;;;;;4384716;32;20774;-73
2020/12/26 09:44:06;;;;;;;3.72;0.95;;;2.00;99.90;;;;;;4385229;32;20129;-73
2020/12/26 09:46:32;;;;;;;0.68;0.68;;;2.10;99.90;;;;;;4399645;32;20389;-75
2020/12/26 09:48:57;;;;;;;0.40;0.40;;;2.20;99.90;;;;;;4400060;32;20463;-72
2020/12/26 09:51:23;;;;;;;0.75;0.75;;;2.30;99.90;;;;;;4400156;32;20129;-75
2020/12/26 09:53:49;;;;;;;0.40;0.40;;;2.20;99.90;;;;;;4388481;32;20083;-73
2020/12/26 09:56:14;;;;;;;5.47;1.42;;;2.20;99.90;;;;;;4385595;32;20082;-75
2020/12/26 09:58:43;;;;;;;0.40;0.40;;;2.30;99.90;;;;;;4386098;32;20067;-75
2020/12/26 10:01:12;;;;;;;1.25;1.15;;;2.30;99.90;;;;;;4384833;32;20075;-75
2020/12/26 10:03:38;;;;;;;0.62;0.62;;;2.20;99.90;;;;;;4384817;32;20062;-74
2020/12/26 10:06:03;;;;;;;0.70;0.70;;;2.20;99.90;;;;;;4392105;32;20346;-75
2020/12/26 10:08:30;;;;;;;0.95;0.60;;;2.30;99.90;;;;;;4400772;32;20519;-75
2020/12/26 10:10:56;;;;;;;0.37;0.37;;;2.40;99.90;;;;;;4393417;32;20066;-73
2020/12/26 10:13:21;;;;;;;1.65;0.93;;;2.30;99.90;;;;;;4385365;32;20069;-74
2020/12/26 10:15:47;;;;;;;0.68;0.68;;;2.30;99.90;;;;;;4384757;32;20126;-74
2020/12/26 10:18:12;;;;;;;0.50;0.50;;;2.30;99.90;;;;;;4393087;32;20071;-74
2020/12/26 10:20:38;;;;;;;1.98;0.95;;;2.30;99.90;;;;;;4399821;32;20067;-73
2020/12/26 10:23:03;;;;;;;0.52;0.52;;;2.30;99.90;;;;;;4399002;32;20133;-75
2020/12/26 10:25:29;;;;;;;0.52;0.52;;;2.30;99.90;;;;;;4399737;32;20083;-74
2020/12/26 10:27:54;;;;;;;0.40;0.40;;;2.40;99.90;;;;;;4400022;32;20083;-73
2020/12/26 10:30:20;;;;;;;3.12;0.90;;;2.40;99.90;;;;;;4400599;32;20538;-74
2020/12/26 10:32:47;;;;;;;1.62;0.65;;;2.50;99.90;;;;;;4400913;32;20070;-74
2020/12/26 10:35:13;;;;;;;0.88;0.77;;;2.50;99.90;;;;;;4399712;32;20130;-74
2020/12/26 10:37:38;;;;;;;0.40;0.40;;;2.60;99.90;;;;;;4400845;32;20066;-73
2020/12/26 10:40:06;;;;;;;0.60;0.60;;;2.60;99.90;;;;;;4400203;32;20392;-74
2020/12/26 10:42:32;;;;;;;0.60;0.60;;;2.70;99.90;;;;;;4399982;32;20058;-73
2020/12/26 10:44:57;;;;;;;0.85;0.68;;;2.70;99.90;;;;;;4399144;32;20083;-73
2020/12/26 10:47:23;;;;;;;0.30;0.30;;;2.50;99.90;;;;;;4399035;32;20074;-74
2020/12/26 10:49:49;;;;;;;0.47;0.47;;;2.50;99.90;;;;;;4399665;32;20069;-74
2020/12/26 10:52:14;;;;;;;0.65;0.62;;;2.50;99.90;;;;;;4398757;32;20502;-73
2020/12/26 10:54:39;;;;;;;2.42;0.85;;;2.60;99.90;;;;;;4398824;32;20058;-74
2020/12/26 10:57:05;;;;;;;0.43;0.43;;;2.50;99.90;;;;;;4399001;32;20070;-73
2020/12/26 10:59:30;;;;;;;0.37;0.37;;;2.40;99.90;;;;;;4399092;32;20079;-73
2020/12/26 11:01:56;;;;;;;0.47;0.47;;;2.40;99.90;;;;;;4399208;32;20074;-73
2020/12/26 11:04:21;;;;;;;0.82;0.82;;;2.30;99.90;;;;;;4399216;32;20068;-75
2020/12/26 11:06:49;;;;;;;0.45;0.45;;;2.00;99.90;;;;;;4388773;32;20066;-73
2020/12/26 11:09:14;;;;;;;0.47;0.47;;;1.90;99.90;;;;;;4383956;32;20487;-73
2020/12/26 11:11:45;;;;;;;0.40;0.40;;;1.80;99.90;;;;;;4394571;32;20070;-73
2020/12/26 11:14:11;;;;;;;0.40;0.40;;;1.90;99.90;;;;;;4399132;32;20070;-74
2020/12/26 11:16:36;;;;;;;0.37;0.37;;;2.10;99.90;;;;;;4400389;32;20413;-74
2020/12/26 11:19:02;;;;;;;0.45;0.45;;;2.00;99.90;;;;;;4386452;32;20144;-74
2020/12/26 11:21:27;;;;;;;0.68;0.65;;;2.10;99.90;;;;;;4384816;32;20070;-73
2020/12/26 11:23:53;;;;;;;0.57;0.57;;;2.00;99.90;;;;;;4383523;32;20398;-73
2020/12/26 11:26:18;;;;;;;0.40;0.40;;;1.90;99.90;;;;;;4383953;32;20085;-73
2020/12/26 11:28:43;;;;;;;0.40;0.40;;;2.00;99.90;;;;;;4383849;32;20083;-74
2020/12/26 11:31:09;;;;;;;2.08;1.10;;;2.10;99.90;;;;;;4383576;32;20081;-74
2020/12/26 11:33:34;;;;;;;0.30;0.30;;;2.20;99.90;;;;;;4384251;32;20065;-73
2020/12/26 11:36:00;;;;;;;0.50;0.50;;;2.20;99.90;;;;;;4384053;32;20066;-73
2020/12/26 11:38:25;;;;;;;0.50;0.50;;;2.20;99.90;;;;;;4383790;32;20086;-74
2020/12/26 11:40:51;;;;;;;0.45;0.45;;;2.20;99.90;;;;;;4383263;32;20070;-73
2020/12/26 11:43:16;;;;;;;0.30;0.30;;;2.20;99.90;;;;;;4384460;32;20083;-74
2020/12/26 11:45:42;;;;;;;5.97;2.55;;;2.10;99.90;;;;;;4383673;32;20075;-73
2020/12/26 11:48:07;;;;;;;1.95;1.12;;;2.20;99.90;;;;;;4383851;32;20082;-73
2020/12/26 11:50:33;;;;;;;0.65;0.65;;;2.40;99.90;;;;;;4383389;32;20065;-75
2020/12/26 11:52:58;;;;;;;0.50;0.50;;;2.40;99.90;;;;;;4383665;32;20058;-74
2020/12/26 11:55:24;;;;;;;0.73;0.73;;;2.20;99.90;;;;;;4383129;32;20536;-74
2020/12/26 11:57:49;;;;;;;2.87;0.80;;;2.00;99.90;;;;;;4383574;32;20091;-75
2020/12/26 12:00:15;;;;;;;0.40;0.40;;;2.00;99.90;;;;;;4384239;32;20069;-75
2020/12/26 12:02:41;;;;;;;0.35;0.35;;;2.00;99.90;;;;;;4383737;32;20559;-75
2020/12/26 12:05:07;;;;;;;0.62;0.62;;;2.10;99.90;;;;;;4384276;32;20066;-74
2020/12/26 12:07:32;;;;;;;0.40;0.40;;;2.20;99.90;;;;;;4398724;32;20082;-75
2020/12/26 12:09:57;;;;;;;0.40;0.40;;;2.20;99.90;;;;;;4399579;32;20081;-75
2020/12/26 12:12:25;;;;;;;0.60;0.60;;;2.20;99.90;;;;;;4383158;32;20107;-74
2020/12/26 12:14:50;;;;;;;0.40;0.40;;;2.20;99.90;;;;;;4383418;32;20073;-75
2020/12/26 12:17:16;;;;;;;0.40;0.40;;;2.40;99.90;;;;;;4386552;32;20126;-74
2020/12/26 12:19:41;;;;;;;0.40;0.40;;;2.40;99.90;;;;;;4398638;32;20135;-75
2020/12/26 12:22:07;;;;;;;0.50;0.50;;;2.50;99.90;;;;;;4398036;32;20066;-74
2020/12/26 12:24:32;;;;;;;0.30;0.30;;;2.30;99.90;;;;;;4398215;32;20066;-75
2020/12/26 12:26:58;;;;;;;0.52;0.52;;;2.20;99.90;;;;;;4398930;32;20074;-75
2020/12/26 12:29:23;;;;;;;0.60;0.60;;;2.30;99.90;;;;;;4398164;32;20138;-74
2020/12/26 12:31:49;;;;;;;0.50;0.50;;;2.40;99.90;;;;;;4399155;32;20066;-74
2020/12/26 12:34:14;;;;;;;0.50;0.50;;;2.50;99.90;;;;;;4399771;32;20070;-74
2020/12/26 12:36:40;;;;;;;1.75;0.60;;;2.60;99.90;;;;;;4398375;32;20531;-74
2020/12/26 12:39:08;;;;;;;0.50;0.50;;;2.70;99.90;;;;;;4405246;32;20069;-74
2020/12/26 12:41:33;;;;;;;0.40;0.40;;;2.60;99.90;;;;;;4398966;32;20078;-74
2020/12/26 12:43:58;;;;;;;0.40;0.40;;;2.60;99.90;;;;;;4398102;32;20519;-74
2020/12/26 12:46:24;;;;;;;0.50;0.50;;;2.60;99.90;;;;;;4399375;32;20104;-73
2020/12/26 12:48:49;;;;;;;0.45;0.45;;;2.60;99.90;;;;;;4399117;32;20070;-74
2020/12/26 12:51:15;;;;;;;0.70;0.70;;;2.70;99.90;;;;;;4398258;32;20074;-74
2020/12/26 12:53:40;;;;;;;0.65;0.65;;;2.70;99.90;;;;;;4399058;32;20105;-75
2020/12/26 12:56:06;;;;;;;0.37;0.37;;;2.70;99.90;;;;;;4397256;32;20075;-73